Latest Weather Observations for Perth Airport

IDW60801

Issued at 5:04 pm WST Tuesday 24 October 2017 (issued every 30 minutes, with the page automatically refreshed every 10 minutes)

About weather observations | Map of weather stations | Latest weather observations for WA | Other Formats
Station Details ID: 009021 Name: PERTH AIRPORT Lat: -31.93 Lon: 115.98 Height: 15.4 m
Data from the previous 72 hours. | See also: Recent months at Perth Airport
Date/Time
WST
Temp
°C
App
Temp
°C
Dew
Point
°C
Rel
Hum
%
Delta-T
°C
Wind Press
QNH
hPa
Press
MSL
hPa
Rain since
9am
mm
Dir  Spd
km/h
Gust
km/h
Spd
kts
Gust
kts
24/05:00pm 19.6 14.8 7.4 45 6.2 SW 22 30 12 16 1016.9 1016.9 0.0
24/04:30pm 20.1 15.5 6.6 41 6.8 SW 20 26 11 14 1016.8 1016.8 0.0
24/04:00pm 20.5 15.2 6.9 41 6.9 WSW 24 33 13 18 1016.7 1016.7 0.0
24/03:30pm 20.7 14.9 6.4 39 7.2 WSW 26 32 14 17 1016.7 1016.7 0.0
24/03:00pm 20.3 14.9 6.3 40 7.0 W 24 32 13 17 1016.7 1016.7 0.0
24/02:30pm 20.7 14.7 6.9 40 7.0 W 28 37 15 20 1016.8 1016.8 0.0
24/02:00pm 21.0 15.4 7.1 40 7.1 W 26 33 14 18 1016.8 1016.8 0.0
24/01:30pm 21.8 17.0 8.8 43 6.9 W 24 32 13 17 1016.8 1016.8 0.0
24/01:00pm 21.6 17.6 9.2 45 6.6 W 20 28 11 15 1016.9 1016.9 0.0
24/12:30pm 21.8 18.1 9.3 45 6.7 W 19 26 10 14 1017.0 1017.0 0.0
24/12:00pm 21.2 17.9 9.6 47 6.2 W 17 32 9 17 1017.2 1017.2 0.0
24/11:30am 20.6 17.7 9.8 50 5.8 W 15 22 8 12 1017.4 1017.4 0.0
24/11:00am 20.2 17.8 9.9 51 5.5 SSW 13 19 7 10 1017.6 1017.6 0.0
24/10:30am 20.2 17.9 10.4 53 5.3 SW 13 22 7 12 1018.0 1018.0 0.0
24/10:00am 19.2 17.2 10.2 56 4.8 SSW 11 19 6 10 1018.3 1018.3 0.0
24/09:30am 18.4 15.2 10.1 58 4.4 SSW 17 24 9 13 1018.5 1018.5 0.0
24/09:00am 18.2 16.1 11.0 63 3.9 S 13 20 7 11 1018.7 1018.7 0.0
24/08:30am 18.5 16.2 11.6 64 3.8 SSW 15 19 8 10 1018.8 1018.8 0.0
24/08:00am 17.0 14.4 12.1 73 2.7 SSW 17 20 9 11 1018.5 1018.5 0.0
24/07:30am 15.8 11.8 11.9 77 2.1 SSW 24 30 13 16 1018.5 1018.5 0.0
24/07:00am 15.4 12.4 11.9 79 1.9 SSW 19 24 10 13 1018.4 1018.4 0.0
24/06:30am 14.8 12.5 11.8 82 1.6 SSW 15 22 8 12 1018.0 1018.0 0.0
24/06:00am 14.7 12.9 12.1 84 1.4 SSW 13 15 7 8 1017.7 1017.7 0.0
24/05:30am 14.3 12.1 12.1 87 1.2 SSW 15 17 8 9 1017.4 1017.4 0.0
24/05:00am 15.0 13.6 12.2 83 1.5 SSW 11 15 6 8 1017.3 1017.3 0.0
24/04:30am 15.1 12.9 12.2 83 1.6 SSW 15 20 8 11 1017.1 1017.1 0.0
24/04:00am 15.2 11.4 12.5 84 1.5 SSW 24 30 13 16 1016.8 1016.8 0.0
24/03:30am 15.4 10.8 12.3 82 1.7 SSW 28 32 15 17 1016.6 1016.6 0.0
24/03:00am 15.8 10.8 12.3 80 1.9 S 30 33 16 18 1016.9 1016.9 0.0
24/02:30am 16.0 13.7 13.1 83 1.6 S 17 22 9 12 1016.7 1016.7 0.0
24/02:00am 16.3 13.2 13.3 82 1.7 SSW 22 28 12 15 1016.8 1016.8 0.0
24/01:30am 16.6 13.4 13.2 80 1.9 SSW 22 28 12 15 1017.2 1017.2 0.0
24/01:00am 16.8 14.0 13.2 79 2.0 SSW 20 32 11 17 1017.1 1017.1 0.0
24/12:30am 16.8 14.3 13.6 81 1.8 SSW 19 26 10 14 1017.1 1017.1 0.0
24/12:00am 16.7 14.6 13.7 82 1.7 SSW 17 26 9 14 1017.1 1017.1 0.0
 
Date/Time
WST
Temp
°C
App
Temp
°C
Dew
Point
°C
Rel
Hum
%
Delta-T
°C
Wind Press
QNH
hPa
Press
MSL
hPa
Rain since
9am
mm
Dir  Spd
km/h
Gust
km/h
Spd
kts
Gust
kts
23/11:30pm 16.7 15.8 13.7 82 1.7 SW 11 15 6 8 1017.2 1017.2 0.0
23/11:00pm 16.7 15.7 13.5 81 1.8 SW 11 13 6 7 1017.4 1017.4 0.0
23/10:30pm 16.2 14.8 13.3 83 1.6 SSW 13 15 7 8 1017.6 1017.6 0.0
23/10:00pm 16.9 14.6 13.1 78 2.1 SSW 17 24 9 13 1017.8 1017.8 0.0
23/09:30pm 17.6 15.9 13.5 77 2.3 SSW 15 19 8 10 1017.6 1017.6 0.0
23/09:00pm 17.4 15.7 13.7 79 2.1 SW 15 20 8 11 1017.5 1017.5 0.0
23/08:30pm 17.7 15.1 13.3 75 2.5 SW 19 22 10 12 1017.4 1017.4 0.0
23/08:00pm 17.9 14.4 13.5 75 2.5 SW 24 30 13 16 1017.2 1017.2 0.0
23/07:30pm 18.3 15.7 13.7 74 2.6 SW 20 26 11 14 1017.0 1017.0 0.0
23/07:00pm 18.6 15.8 12.7 68 3.3 WSW 19 24 10 13 1016.9 1016.9 0.0
23/06:30pm 18.7 15.1 13.0 69 3.2 SW 24 30 13 16 1016.6 1016.6 0.0
23/06:00pm 19.0 14.9 12.8 67 3.5 SW 26 32 14 17 1016.2 1016.2 0.0
23/05:30pm 19.7 16.1 13.2 66 3.7 SW 24 30 13 16 1016.1 1016.1 0.0
23/05:00pm 21.0 16.9 12.7 59 4.7 WSW 26 33 14 18 1015.9 1015.9 0.0
23/04:30pm 21.8 17.6 13.5 59 4.8 SW 28 37 15 20 1015.6 1015.6 0.0
23/04:00pm 21.9 18.0 13.4 58 4.9 SW 26 35 14 19 1015.3 1015.3 0.0
23/03:30pm 22.8 19.7 13.3 55 5.5 WSW 22 32 12 17 1015.0 1015.0 0.0
23/03:00pm 22.4 18.5 13.4 56 5.2 SW 26 32 14 17 1015.2 1015.2 0.0
23/02:30pm 23.1 19.7 13.6 55 5.5 WSW 24 32 13 17 1014.9 1014.9 0.0
23/02:00pm 22.7 19.6 13.4 55 5.4 WSW 22 33 12 18 1015.0 1015.0 0.0
23/01:30pm 22.1 19.6 13.6 58 4.9 WSW 19 30 10 16 1014.9 1014.9 0.0
23/01:00pm 22.3 19.7 13.3 56 5.2 SW 19 26 10 14 1014.9 1014.9 0.0
23/12:36pm 22.0 20.6 13.5 58 4.9 SW 13 20 7 11 1014.9 1014.9 0.0
23/12:30pm 22.0 20.6 13.3 57 5.0 SW 13 22 7 12 1014.8 1014.8 0.0
23/12:00pm 21.7 21.2 13.8 60 4.6 SW 9 17 5 9 1014.9 1014.9 0.0
23/11:30am 21.2 20.5 14.2 64 4.1 S 11 15 6 8 1015.1 1015.1 0.0
23/11:00am 20.2 19.4 14.0 67 3.6 SSW 11 15 6 8 1015.2 1015.2 0.0
23/10:30am 19.2 17.6 13.8 71 3.1 SW 15 19 8 10 1015.5 1015.5 0.0
23/10:00am 18.8 17.8 14.5 76 2.5 SSW 13 19 7 10 1015.7 1015.7 0.0
23/09:30am 18.4 16.8 15.0 80 2.0 SW 17 24 9 13 1015.6 1015.6 0.0
23/09:00am 18.2 16.5 14.7 80 2.0 SW 17 22 9 12 1015.5 1015.5 0.0
23/08:30am 18.2 16.3 15.1 82 1.8 WSW 19 24 10 13 1015.5 1015.5 0.0
23/08:00am 18.3 17.2 15.2 82 1.8 WSW 15 19 8 10 1015.3 1015.3 0.0
23/07:43am 18.3 16.9 15.6 84 1.6 SW 17 22 9 12 1015.2 1015.2 0.0
23/07:30am 18.4 17.0 15.5 83 1.7 SW 17 20 9 11 1015.0 1015.0 0.0
23/07:00am 18.1 17.2 15.9 87 1.3 WSW 15 20 8 11 1014.6 1014.6 0.0
23/06:30am 17.7 18.2 16.5 93 0.7 WSW 9 15 5 8 1014.3 1014.3 0.0
23/06:00am 17.3 18.1 16.3 94 0.6 SW 7 11 4 6 1014.2 1014.2 0.0
23/05:30am 17.0 18.7 16.2 95 0.5 ENE 2 6 1 3 1013.9 1013.9 0.0
23/05:00am 16.9 17.8 16.1 95 0.5 NNE 6 7 3 4 1013.6 1013.6 0.0
23/04:30am 16.6 17.2 15.7 94 0.5 NE 7 7 4 4 1013.4 1013.4 0.0
23/04:00am 16.3 17.0 15.6 96 0.4 NNE 6 7 3 4 1013.3 1013.3 0.0
23/03:30am 16.3 17.0 15.6 96 0.4 NNE 6 7 3 4 1013.1 1013.1 0.0
23/03:00am 16.0 16.7 15.5 97 0.3 NE 6 7 3 4 1013.0 1013.0 0.0
23/02:30am 15.6 15.9 15.1 97 0.3 NNE 7 9 4 5 1012.8 1012.8 0.0
23/02:00am 15.0 15.2 14.3 96 0.4 NE 6 7 3 4 1012.9 1012.9 0.0
23/01:30am 14.6 14.2 14.1 97 0.3 NE 9 11 5 6 1012.9 1012.9 0.0
23/01:00am 14.7 14.6 14.0 96 0.4 NNE 7 9 4 5 1013.0 1013.0 0.0
23/12:30am 15.1 15.2 14.4 96 0.4 NNE 7 9 4 5 1013.1 1013.1 0.0
23/12:00am 15.9 16.5 15.2 96 0.4 NE 6 9 3 5 1013.3 1013.3 0.0
 
Date/Time
WST
Temp
°C
App
Temp
°C
Dew
Point
°C
Rel
Hum
%
Delta-T
°C
Wind Press
QNH
hPa
Press
MSL
hPa
Rain since
9am
mm
Dir  Spd
km/h
Gust
km/h
Spd
kts
Gust
kts
22/11:30pm 16.1 16.8 15.6 97 0.3 ESE 6 9 3 5 1013.6 1013.6 0.0
22/11:00pm 15.9 15.9 15.2 96 0.4 WSW 9 9 5 5 1013.6 1013.6 0.0
22/10:30pm 16.5 16.6 15.6 94 0.5 SW 9 9 5 5 1013.7 1013.7 0.0
22/10:00pm 16.7 17.3 15.7 94 0.6 SW 7 11 4 6 1013.8 1013.8 0.0
22/09:30pm 17.5 18.2 16.0 91 0.9 SSW 7 9 4 5 1013.9 1013.9 0.0
22/09:00pm 18.3 18.7 16.3 88 1.2 SW 9 11 5 6 1014.0 1014.0 0.0
22/08:30pm 19.3 19.7 16.3 83 1.8 SW 9 11 5 6 1013.9 1013.9 0.0
22/08:00pm 19.6 18.9 16.3 81 2.0 SSW 15 17 8 9 1013.7 1013.7 0.0
22/07:30pm 20.2 19.4 16.2 78 2.4 WSW 15 19 8 10 1013.7 1013.7 0.0
22/07:00pm 20.4 19.2 16.1 76 2.6 WSW 17 22 9 12 1013.4 1013.4 0.0
22/06:30pm 21.0 20.0 16.5 75 2.7 W 17 20 9 11 1012.9 1012.9 0.0
22/06:00pm 22.0 19.9 15.3 65 4.0 WSW 20 28 11 15 1012.5 1012.5 0.0
22/05:30pm 23.2 21.1 14.8 59 5.0 WSW 19 26 10 14 1012.1 1012.1 0.0
22/05:00pm 23.7 20.9 14.2 55 5.6 WSW 22 33 12 18 1011.7 1011.7 0.0
22/04:30pm 24.6 21.6 14.7 54 5.9 W 24 33 13 18 1011.4 1011.4 0.0
22/04:00pm 26.0 22.8 14.3 48 7.0 WNW 24 32 13 17 1010.9 1010.9 0.0
22/03:30pm 26.3 23.4 14.0 46 7.3 WNW 22 33 12 18 1010.7 1010.7 0.0
22/03:00pm 27.1 24.7 14.4 45 7.6 W 20 26 11 14 1010.5 1010.5 0.0
22/02:30pm 27.9 27.6 13.2 40 8.7 NE 7 13 4 7 1010.6 1010.6 0.0
22/02:00pm 26.9 25.4 13.1 42 8.1 NNE 13 19 7 10 1010.8 1010.8 0.0
22/01:30pm 26.8 26.2 13.4 43 7.9 NNE 9 22 5 12 1010.8 1010.8 0.0
22/01:00pm 27.1 26.2 13.6 43 8.0 NE 11 17 6 9 1010.8 1010.8 0.0
22/12:30pm 27.3 24.7 13.9 43 8.0 ESE 20 30 11 16 1010.7 1010.7 0.0
22/12:00pm 26.5 24.9 13.9 45 7.5 ENE 15 28 8 15 1011.1 1011.1 0.0
22/11:30am 26.5 25.3 14.1 46 7.4 NE 13 20 7 11 1011.8 1011.8 0.0
22/11:00am 24.7 23.1 13.8 50 6.4 E 15 26 8 14 1012.4 1012.4 0.0
22/10:30am 24.9 23.7 14.1 51 6.4 NE 13 26 7 14 1012.6 1012.6 0.0
22/10:00am 24.6 22.7 14.3 52 6.1 ENE 17 28 9 15 1012.6 1012.6 0.0
22/09:30am 23.8 21.8 13.9 54 5.8 ENE 17 28 9 15 1012.6 1012.6 0.0
22/09:00am 23.1 20.7 13.9 56 5.4 E 19 32 10 17 1012.6 1012.6 1.0
22/08:30am 23.2 21.8 13.4 54 5.7 ESE 13 22 7 12 1012.7 1012.7 1.0
22/08:00am 22.5 21.5 13.3 56 5.3 SSE 11 13 6 7 1012.9 1012.9 1.0
22/07:30am 21.5 19.6 13.1 58 4.8 S 15 26 8 14 1012.9 1012.9 1.0
22/07:00am 20.2 18.5 13.6 66 3.8 SE 15 19 8 10 1012.3 1012.3 1.0
22/06:30am 19.0 16.8 13.4 70 3.2 NE 17 28 9 15 1011.6 1011.6 1.0
22/06:00am 18.8 14.1 13.1 69 3.2 ENE 30 39 16 21 1010.8 1010.8 1.0
22/05:50am 19.0 14.6 13.0 68 3.4 ENE 28 46 15 25 1010.6 1010.6 1.0
22/05:30am 18.9 14.6 13.1 69 3.3 E 28 35 15 19 1011.1 1011.1 1.0
22/05:00am 18.9 16.8 13.6 71 3.0 ENE 17 20 9 11 1011.5 1011.5 1.0
22/04:30am 19.1 18.0 14.3 73 2.8 N 13 19 7 10 1012.3 1012.3 0.8
22/04:04am 19.7 17.1 13.2 66 3.7 NE 19 28 10 15 1011.5 1011.5 0.6
22/04:00am 19.5 16.4 13.4 68 3.5 NE 22 39 12 21 1011.4 1011.4 0.6
22/03:41am 20.1 14.8 13.1 64 4.0 ENE 33 56 18 30 1011.0 1011.0 0.4
22/03:31am 20.5 14.6 12.3 59 4.6 E 35 54 19 29 1010.7 1010.7 0.2
22/03:30am 20.5 14.2 12.3 59 4.6 E 37 54 20 29 1010.7 1010.7 0.2
22/03:00am 20.8 15.2 12.1 57 4.9 ENE 33 57 18 31 1011.1 1011.1 0.2
22/02:33am 21.0 13.3 12.1 56 5.0 E 44 63 24 34 1010.9 1010.9 0.2
22/02:30am 21.0 12.5 12.1 56 5.0 E 48 63 26 34 1011.1 1011.1 0.2
22/02:00am 21.2 13.2 12.3 57 5.0 E 46 65 25 35 1011.3 1011.3 0.2
22/01:30am 21.5 14.7 11.9 54 5.4 E 39 61 21 33 1011.6 1011.6 0.2
22/01:12am 21.5 16.8 11.9 54 5.4 ENE 28 50 15 27 1011.9 1011.9 0.2
22/01:00am 21.7 16.9 11.7 53 5.6 ENE 28 41 15 22 1012.3 1012.3 0.2
22/12:44am 21.8 16.1 11.8 53 5.6 E 33 52 18 28 1012.6 1012.6 0.2
22/12:30am 21.7 15.7 12.1 54 5.4 E 35 50 19 27 1012.7 1012.7 0.2
22/12:16am 21.8 14.7 12.2 54 5.4 E 41 61 22 33 1012.8 1012.8 0.2
22/12:00am 21.9 15.9 12.1 53 5.5 E 35 48 19 26 1012.7 1012.7 0.2
 
Date/Time
WST
Temp
°C
App
Temp
°C
Dew
Point
°C
Rel
Hum
%
Delta-T
°C
Wind Press
QNH
hPa
Press
MSL
hPa
Rain since
9am
mm
Dir  Spd
km/h
Gust
km/h
Spd
kts
Gust
kts
21/11:30pm 23.0 16.5 11.8 49 6.3 E 37 54 20 29 1013.3 1013.3 0.2
21/11:00pm 23.0 15.0 12.5 51 6.0 ENE 46 65 25 35 1013.4 1013.4 0.2
21/10:58pm 23.1 15.1 12.4 51 6.1 ENE 46 65 25 35 1013.5 1013.5 0.2
21/10:53pm 23.5 15.0 12.0 48 6.5 NE 48 63 26 34 1013.8 1013.8 0.2
21/10:43pm 25.4 18.3 9.5 36 8.7 NNE 37 61 20 33 1014.2 1014.2 0.2
21/10:30pm 26.2 20.1 8.2 32 9.7 ENE 30 52 16 28 1013.3 1013.3 0.2
21/10:27pm 24.9 19.7 10.3 39 8.1 NE 28 46 15 25 1014.0 1014.0 0.2
21/10:00pm 22.1 19.7 12.8 55 5.3 ESE 17 24 9 13 1014.0 1014.0 0.2
21/09:30pm 21.9 17.7 12.4 54 5.4 E 26 35 14 19 1014.5 1014.5 0.2
21/09:00pm 22.3 19.0 12.9 55 5.4 NE 22 35 12 19 1015.2 1015.2 0.2
21/08:41pm 23.9 18.4 11.7 46 6.9 ENE 32 46 17 25 1015.1 1015.1 0.0
21/08:30pm 23.6 17.6 10.8 44 7.1 E 33 41 18 22 1015.8 1015.8 0.0
21/08:00pm 24.1 17.4 9.6 39 7.9 ENE 35 44 19 24 1014.8 1014.8 0.0
21/07:30pm 24.4 18.2 8.0 35 8.7 ENE 30 37 16 20 1015.3 1015.3 0.0
21/07:06pm 24.3 21.0 9.4 38 8.1 NE 17 33 9 18 1015.7 1015.7 0.0
21/07:00pm 25.6 22.1 7.2 31 9.7 NNW 15 26 8 14 1016.2 1016.2 0.0
21/06:30pm 25.4 21.4 6.8 30 9.7 E 17 24 9 13 1015.1 1015.1 0.0
21/06:00pm 25.2 20.3 6.8 30 9.6 E 22 30 12 16 1014.6 1014.6 0.0
21/05:30pm 25.7 19.4 5.9 28 10.2 E 28 37 15 20 1014.4 1014.4 0.0

Other Formats:

Comma delimited format used in spreadsheet applications
http://www.bom.gov.au/fwo/IDW60801/IDW60801.94610.axf

JavaScript Object Notation format (JSON) in row-major order
http://www.bom.gov.au/fwo/IDW60801/IDW60801.94610.json